createdAt,value
2023-04-16T00:00:53.456Z,6.90
2023-04-16T00:03:25.627Z,6.90
2023-04-16T00:05:57.492Z,6.90
2023-04-16T00:08:29.249Z,6.90
2023-04-16T00:11:00.950Z,6.90
2023-04-16T00:13:32.893Z,6.90
2023-04-16T00:16:04.868Z,6.90
2023-04-16T00:18:36.595Z,6.90
2023-04-16T00:21:08.480Z,6.90
2023-04-16T00:23:40.362Z,6.90
2023-04-16T00:26:12.187Z,6.90
2023-04-16T00:28:43.931Z,6.90
2023-04-16T00:31:15.939Z,6.80
2023-04-16T00:33:47.662Z,6.80
2023-04-16T00:36:19.374Z,6.80
2023-04-16T00:38:51.637Z,6.80
2023-04-16T00:41:23.470Z,6.80
2023-04-16T00:43:55.146Z,6.80
2023-04-16T00:46:27.195Z,6.90
2023-04-16T00:49:01.121Z,6.90
2023-04-16T00:51:33.079Z,6.90
2023-04-16T00:54:06.253Z,6.90
2023-04-16T00:56:38.673Z,6.90
2023-04-16T00:59:10.880Z,6.90
2023-04-16T01:01:42.806Z,6.90
2023-04-16T01:04:14.754Z,6.90
2023-04-16T01:06:46.530Z,6.90
2023-04-16T01:09:18.274Z,6.90
2023-04-16T01:11:49.987Z,6.90
2023-04-16T01:14:21.748Z,6.90
2023-04-16T01:16:53.558Z,6.90
2023-04-16T01:19:25.357Z,6.90
2023-04-16T01:21:58.768Z,6.90
2023-04-16T01:24:31.071Z,6.90
2023-04-16T01:27:02.881Z,6.90
2023-04-16T01:29:35.043Z,6.90
2023-04-16T01:32:06.997Z,6.90
2023-04-16T01:34:38.673Z,6.90
2023-04-16T01:37:10.825Z,6.90
2023-04-16T01:39:42.552Z,6.80
2023-04-16T01:42:14.248Z,6.80
2023-04-16T01:44:47.549Z,6.80
2023-04-16T01:47:19.543Z,6.90
2023-04-16T01:49:51.384Z,6.90
2023-04-16T01:52:23.212Z,6.90
2023-04-16T01:54:54.932Z,6.90
2023-04-16T01:57:26.624Z,6.80
2023-04-16T01:59:58.362Z,6.90
2023-04-16T02:02:31.808Z,6.90
2023-04-16T02:05:03.908Z,6.90
2023-04-16T02:07:35.666Z,6.80
2023-04-16T02:10:10.222Z,6.90
2023-04-16T02:12:41.955Z,6.90
2023-04-16T02:15:13.720Z,6.90
2023-04-16T02:17:46.650Z,6.90
2023-04-16T02:20:18.728Z,6.80
2023-04-16T02:22:50.491Z,6.90
2023-04-16T02:25:23.064Z,6.90
2023-04-16T02:27:54.736Z,6.90
2023-04-16T02:30:26.719Z,6.80
2023-04-16T02:32:58.573Z,6.80
2023-04-16T02:35:30.354Z,6.80
2023-04-16T02:38:02.546Z,6.90
2023-04-16T02:40:34.413Z,6.80
2023-04-16T02:43:06.067Z,6.90
2023-04-16T02:45:37.817Z,6.80
2023-04-16T02:48:09.975Z,6.80
2023-04-16T02:50:41.695Z,6.80
2023-04-16T02:53:13.417Z,6.80
2023-04-16T02:55:54.956Z,6.80
2023-04-16T02:58:26.926Z,6.80
2023-04-16T03:00:58.697Z,6.90
2023-04-16T03:03:30.495Z,6.80
2023-04-16T03:06:02.214Z,6.90
2023-04-16T03:08:33.928Z,6.80
2023-04-16T03:11:05.634Z,6.80
2023-04-16T03:13:37.323Z,6.90
2023-04-16T03:16:09.033Z,6.80
2023-04-16T03:18:40.834Z,6.80
2023-04-16T03:21:12.519Z,6.90
2023-04-16T03:23:44.334Z,6.80
2023-04-16T03:26:16.370Z,6.80
2023-04-16T03:28:48.055Z,6.80
2023-04-16T03:31:19.786Z,6.80
2023-04-16T03:33:51.896Z,6.80
2023-04-16T03:36:23.648Z,6.80
2023-04-16T03:38:55.384Z,6.80
2023-04-16T03:41:27.120Z,6.80
2023-04-16T03:43:58.813Z,6.70
2023-04-16T03:46:30.757Z,6.80
2023-04-16T03:49:02.552Z,6.70
2023-04-16T03:51:34.279Z,6.70
2023-04-16T03:54:06.012Z,6.70
2023-04-16T03:56:39.706Z,6.70
2023-04-16T03:59:11.626Z,6.80
2023-04-16T04:01:43.417Z,6.70
2023-04-16T04:04:15.274Z,6.80
2023-04-16T04:06:47.339Z,6.70
2023-04-16T04:09:19.030Z,6.70
2023-04-16T04:11:50.871Z,6.70
2023-04-16T04:14:22.622Z,6.70
2023-04-16T04:16:54.391Z,6.70
2023-04-16T04:19:26.047Z,6.70
2023-04-16T04:21:57.716Z,6.70
2023-04-16T04:24:29.409Z,6.70
2023-04-16T04:27:02.027Z,6.70
2023-04-16T04:29:33.712Z,6.70
2023-04-16T04:32:05.605Z,6.70
2023-04-16T04:34:37.319Z,6.70
2023-04-16T04:37:09.065Z,6.70
2023-04-16T04:39:41.150Z,6.70
2023-04-16T04:42:12.891Z,6.70
2023-04-16T04:44:45.218Z,6.70
2023-04-16T04:47:16.891Z,6.70
2023-04-16T04:49:48.680Z,6.70
2023-04-16T04:52:20.784Z,6.80
2023-04-16T04:54:52.905Z,6.70
2023-04-16T04:57:24.667Z,6.70
2023-04-16T04:59:56.410Z,6.80
2023-04-16T05:02:28.172Z,6.70
2023-04-16T05:05:00.025Z,6.70
2023-04-16T05:07:32.241Z,6.70
2023-04-16T05:10:04.127Z,6.70
2023-04-16T05:12:35.867Z,6.70
2023-04-16T05:15:08.267Z,6.70
2023-04-16T05:17:39.951Z,6.70
2023-04-16T05:20:12.126Z,6.70
2023-04-16T05:22:43.846Z,6.70
2023-04-16T05:25:15.715Z,6.80
2023-04-16T05:27:47.375Z,6.70
2023-04-16T05:30:19.461Z,6.70
2023-04-16T05:32:51.637Z,6.70
2023-04-16T05:35:23.478Z,6.70
2023-04-16T05:37:55.206Z,6.70
2023-04-16T05:40:27.059Z,6.70
2023-04-16T05:42:58.776Z,6.70
2023-04-16T05:45:33.303Z,6.70
2023-04-16T05:48:05.752Z,6.70
2023-04-16T05:50:38.027Z,6.70
2023-04-16T05:53:10.936Z,6.70
2023-04-16T05:55:42.862Z,6.80
2023-04-16T05:58:14.604Z,6.70
2023-04-16T06:00:46.427Z,6.70
2023-04-16T06:03:18.283Z,6.70
2023-04-16T06:05:50.235Z,6.70
2023-04-16T06:08:22.084Z,6.80
2023-04-16T06:10:53.855Z,6.70
2023-04-16T06:13:25.632Z,6.70
2023-04-16T06:15:57.319Z,6.70
2023-04-16T06:18:29.120Z,6.70
2023-04-16T06:21:00.907Z,6.70
2023-04-16T06:23:32.596Z,6.70
2023-04-16T06:26:04.972Z,6.80
2023-04-16T06:28:36.692Z,6.70
2023-04-16T06:31:08.519Z,6.70
2023-04-16T06:33:40.718Z,6.70
2023-04-16T06:36:12.551Z,6.70
2023-04-16T06:38:44.337Z,6.70
2023-04-16T06:41:16.144Z,6.70
2023-04-16T06:43:47.843Z,6.80
2023-04-16T06:46:19.622Z,6.70
2023-04-16T06:48:51.426Z,6.80
2023-04-16T06:51:23.172Z,6.70
2023-04-16T06:53:54.892Z,6.80
2023-04-16T06:56:26.638Z,6.70
2023-04-16T06:58:59.418Z,6.70
2023-04-16T07:01:31.381Z,6.80
2023-04-16T07:04:03.702Z,6.80
2023-04-16T07:06:35.560Z,6.80
2023-04-16T07:09:07.325Z,6.80
2023-04-16T07:11:39.214Z,6.80
2023-04-16T07:14:11.091Z,6.80
2023-04-16T07:16:42.923Z,6.80
2023-04-16T07:19:14.682Z,6.80
2023-04-16T07:21:46.681Z,6.80
2023-04-16T07:24:18.427Z,6.80
2023-04-16T07:26:50.235Z,6.80
2023-04-16T07:29:21.974Z,6.90
2023-04-16T07:31:53.778Z,6.80
2023-04-16T07:34:25.655Z,6.90
2023-04-16T07:36:57.348Z,6.90
2023-04-16T07:39:29.098Z,6.90
2023-04-16T07:42:01.236Z,6.90
2023-04-16T07:44:33.108Z,6.90
2023-04-16T07:47:05.790Z,7.00
2023-04-16T07:49:37.795Z,7.00
2023-04-16T07:52:09.514Z,7.00
2023-04-16T07:54:41.420Z,7.00
2023-04-16T07:57:13.228Z,7.00
2023-04-16T07:59:44.923Z,7.00
2023-04-16T08:02:17.117Z,7.00
2023-04-16T08:04:49.027Z,7.00
2023-04-16T08:07:20.870Z,7.00
2023-04-16T08:09:53.189Z,7.00
2023-04-16T08:12:25.024Z,7.00
2023-04-16T08:14:56.741Z,7.10
2023-04-16T08:17:29.489Z,7.00
2023-04-16T08:20:01.831Z,7.00
2023-04-16T08:22:34.011Z,7.00
2023-04-16T08:25:06.314Z,7.00
2023-04-16T08:27:38.087Z,7.00
2023-04-16T08:30:09.983Z,7.00
2023-04-16T08:32:41.801Z,7.00
2023-04-16T08:35:13.586Z,7.00
2023-04-16T08:37:45.519Z,7.10
2023-04-16T08:40:17.516Z,7.10
2023-04-16T08:42:53.728Z,7.10
2023-04-16T08:45:27.166Z,7.10
2023-04-16T08:47:59.228Z,7.20
2023-04-16T08:50:34.800Z,7.20
2023-04-16T08:53:07.292Z,7.10
2023-04-16T08:55:41.442Z,7.20
2023-04-16T08:58:19.684Z,7.20
2023-04-16T09:00:52.037Z,7.10
2023-04-16T09:03:23.991Z,7.10
2023-04-16T09:05:59.107Z,7.20
2023-04-16T09:08:32.245Z,7.20
2023-04-16T09:11:04.457Z,7.20
2023-04-16T09:13:38.022Z,7.30
2023-04-16T09:16:10.968Z,7.40
2023-04-16T09:18:42.878Z,7.50
2023-04-16T09:21:15.335Z,7.50
2023-04-16T09:23:47.636Z,7.60
2023-04-16T09:26:20.242Z,7.60
2023-04-16T09:28:52.030Z,7.50
2023-04-16T09:31:23.957Z,7.50
2023-04-16T09:34:08.622Z,7.50
2023-04-16T09:36:40.395Z,7.60
2023-04-16T09:39:20.055Z,7.60
2023-04-16T09:41:54.769Z,7.50
2023-04-16T09:44:36.291Z,7.60
2023-04-16T09:47:09.583Z,7.60
2023-04-16T09:49:42.520Z,7.70
2023-04-16T09:52:15.559Z,7.70
2023-04-16T09:54:54.692Z,7.70
2023-04-16T09:57:27.165Z,7.70
2023-04-16T10:00:04.416Z,7.70
2023-04-16T10:02:39.176Z,7.60
2023-04-16T10:05:16.902Z,7.60
2023-04-16T10:07:49.499Z,7.60
2023-04-16T10:10:22.162Z,7.70
2023-04-16T10:12:55.711Z,7.60
2023-04-16T10:15:28.320Z,7.60
2023-04-16T10:18:00.656Z,7.50
2023-04-16T10:20:32.528Z,7.50
2023-04-16T10:23:04.438Z,7.50
2023-04-16T10:25:38.002Z,7.60
2023-04-16T10:28:10.408Z,7.70
2023-04-16T10:30:52.402Z,7.70
2023-04-16T10:33:28.286Z,7.70
2023-04-16T10:36:23.266Z,7.70
2023-04-16T10:38:59.726Z,7.60
2023-04-16T10:41:33.593Z,7.60
2023-04-16T10:44:10.007Z,7.70
2023-04-16T10:46:43.762Z,7.70
2023-04-16T10:49:24.996Z,7.70
2023-04-16T10:52:02.240Z,7.70
2023-04-16T10:54:36.199Z,7.80
2023-04-16T10:57:16.216Z,7.90
2023-04-16T10:59:49.426Z,7.80
2023-04-16T11:02:21.284Z,7.80
2023-04-16T11:04:57.390Z,7.80
2023-04-16T11:07:35.094Z,7.70
2023-04-16T11:10:12.528Z,7.80
2023-04-16T11:12:47.399Z,7.70
2023-04-16T11:15:19.606Z,7.80
2023-04-16T11:17:52.646Z,7.80
2023-04-16T11:20:28.854Z,7.80
2023-04-16T11:23:00.774Z,7.80
2023-04-16T11:25:34.153Z,7.90
2023-04-16T11:28:05.900Z,7.90
2023-04-16T11:30:39.212Z,8.00
2023-04-16T11:33:12.392Z,8.00
2023-04-16T11:35:45.844Z,8.10
2023-04-16T11:38:18.750Z,8.20
2023-04-16T11:40:51.542Z,8.20
2023-04-16T11:43:23.385Z,8.20
2023-04-16T11:45:59.846Z,8.10
2023-04-16T11:48:55.389Z,8.10
2023-04-16T11:51:27.336Z,8.10
2023-04-16T11:53:59.121Z,8.10
2023-04-16T11:56:33.249Z,8.10
2023-04-16T11:59:12.569Z,8.10
2023-04-16T12:01:52.294Z,8.10
2023-04-16T12:04:26.848Z,8.20
2023-04-16T12:07:05.132Z,8.20
2023-04-16T12:09:40.526Z,8.20
2023-04-16T12:12:33.159Z,8.40
2023-04-16T12:15:05.235Z,8.30
2023-04-16T12:17:38.042Z,8.30
2023-04-16T12:20:15.373Z,8.40
2023-04-16T12:22:49.229Z,8.50
2023-04-16T12:25:24.334Z,8.40
2023-04-16T12:27:58.006Z,8.40
2023-04-16T12:30:30.986Z,8.30
2023-04-16T12:33:19.374Z,8.30
2023-04-16T12:35:51.212Z,8.20
2023-04-16T12:38:24.743Z,8.30
2023-04-16T12:40:57.768Z,8.40
2023-04-16T12:43:29.620Z,8.40
2023-04-16T12:46:04.173Z,8.30
2023-04-16T12:48:36.229Z,8.40
2023-04-16T12:51:08.082Z,8.40
2023-04-16T12:53:39.849Z,8.40
2023-04-16T12:56:11.629Z,8.30
2023-04-16T12:58:43.299Z,8.40
2023-04-16T13:01:15.052Z,8.40
2023-04-16T13:03:47.940Z,8.50
2023-04-16T13:06:20.828Z,8.40
2023-04-16T13:08:52.628Z,8.50
2023-04-16T13:11:24.499Z,8.50
2023-04-16T13:13:56.268Z,8.50
2023-04-16T13:16:28.067Z,8.50
2023-04-16T13:18:59.884Z,8.50
2023-04-16T13:21:31.623Z,8.50
2023-04-16T13:24:03.552Z,8.50
2023-04-16T13:26:35.756Z,8.40
2023-04-16T13:29:07.564Z,8.30
2023-04-16T13:31:39.505Z,8.40
2023-04-16T13:34:11.524Z,8.30
2023-04-16T13:36:43.348Z,8.40
2023-04-16T13:39:15.691Z,8.40
2023-04-16T13:41:49.001Z,8.50
2023-04-16T13:44:20.743Z,8.50
2023-04-16T13:46:53.017Z,8.50
2023-04-16T13:49:24.775Z,8.50
2023-04-16T13:51:56.597Z,8.50
2023-04-16T13:54:28.273Z,8.50
2023-04-16T13:57:00.175Z,8.30
2023-04-16T13:59:32.008Z,8.30
2023-04-16T14:02:05.001Z,8.20
2023-04-16T14:04:36.777Z,8.20
2023-04-16T14:07:08.491Z,8.20
2023-04-16T14:09:40.393Z,8.30
2023-04-16T14:12:12.197Z,8.20
2023-04-16T14:14:44.012Z,8.30
2023-04-16T14:17:15.907Z,8.30
2023-04-16T14:19:47.616Z,8.30
2023-04-16T14:22:19.379Z,8.30
2023-04-16T14:24:51.084Z,8.30
2023-04-16T14:27:22.948Z,8.30
2023-04-16T14:29:54.841Z,8.30
2023-04-16T14:32:27.023Z,8.30
2023-04-16T14:34:58.879Z,8.30
2023-04-16T14:37:31.131Z,8.20
2023-04-16T14:40:08.181Z,8.20
2023-04-16T14:42:39.963Z,8.20
2023-04-16T14:45:11.995Z,8.20
2023-04-16T14:47:47.681Z,8.20
2023-04-16T14:50:19.575Z,8.20
2023-04-16T14:52:51.741Z,8.20
2023-04-16T14:55:23.530Z,8.10
2023-04-16T14:57:56.288Z,8.10
2023-04-16T15:00:28.119Z,8.20
2023-04-16T15:03:00.025Z,8.30
2023-04-16T15:05:31.963Z,8.30
2023-04-16T15:08:05.398Z,8.20
2023-04-16T15:10:37.818Z,8.20
2023-04-16T15:13:09.544Z,8.10
2023-04-16T15:15:41.636Z,8.10
2023-04-16T15:18:13.537Z,8.20
2023-04-16T15:20:45.481Z,8.20
2023-04-16T15:23:17.200Z,8.20
2023-04-16T15:25:48.978Z,8.20
2023-04-16T15:28:20.856Z,8.20
2023-04-16T15:30:52.745Z,8.10
2023-04-16T15:33:24.869Z,8.10
2023-04-16T15:35:56.596Z,8.20
2023-04-16T15:38:30.677Z,8.10
2023-04-16T15:41:02.407Z,8.20
2023-04-16T15:43:34.079Z,8.10
2023-04-16T15:46:06.603Z,8.10
2023-04-16T15:48:38.412Z,8.10
2023-04-16T15:51:11.066Z,8.10
2023-04-16T15:53:44.753Z,8.10
2023-04-16T15:56:17.046Z,8.10
2023-04-16T15:58:48.732Z,8.10
2023-04-16T16:01:20.666Z,8.10
2023-04-16T16:03:52.722Z,8.20
2023-04-16T16:06:24.698Z,8.20
2023-04-16T16:08:56.683Z,8.10
2023-04-16T16:11:28.488Z,8.20
2023-04-16T16:14:03.499Z,8.20
2023-04-16T16:16:35.592Z,8.20
2023-04-16T16:19:07.769Z,8.10
2023-04-16T16:21:39.538Z,8.20
2023-04-16T16:24:11.254Z,8.10
2023-04-16T16:26:42.993Z,8.10
2023-04-16T16:29:14.761Z,8.10
2023-04-16T16:31:46.652Z,8.20
2023-04-16T16:34:21.237Z,8.10
2023-04-16T16:36:53.193Z,8.20
2023-04-16T16:39:25.382Z,8.10
2023-04-16T16:42:03.078Z,8.10
2023-04-16T16:44:34.832Z,8.10
2023-04-16T16:47:06.885Z,8.10
2023-04-16T16:49:38.600Z,8.10
2023-04-16T16:52:10.452Z,8.00
2023-04-16T16:54:42.794Z,8.00
2023-04-16T16:57:15.373Z,8.00
2023-04-16T16:59:47.373Z,8.00
2023-04-16T17:02:19.199Z,8.00
2023-04-16T17:04:51.867Z,8.00
2023-04-16T17:07:23.639Z,8.00
2023-04-16T17:09:55.330Z,8.00
2023-04-16T17:12:27.179Z,8.00
2023-04-16T17:14:58.962Z,8.00
2023-04-16T17:17:33.639Z,8.00
2023-04-16T17:20:09.328Z,8.00
2023-04-16T17:22:41.149Z,8.00
2023-04-16T17:25:13.068Z,8.00
2023-04-16T17:27:44.808Z,7.90
2023-04-16T17:30:16.839Z,8.00
2023-04-16T17:32:48.602Z,7.90
2023-04-16T17:35:20.952Z,8.00
2023-04-16T17:37:52.657Z,7.90
2023-04-16T17:40:24.365Z,7.90
2023-04-16T17:42:56.214Z,7.90
2023-04-16T17:45:27.972Z,7.90
2023-04-16T17:47:59.754Z,8.00
2023-04-16T17:50:31.644Z,7.90
2023-04-16T17:53:03.909Z,7.90
2023-04-16T17:55:35.853Z,7.90
2023-04-16T17:58:07.642Z,7.90
2023-04-16T18:00:39.404Z,7.90
2023-04-16T18:03:14.788Z,7.90
2023-04-16T18:05:46.588Z,7.90
2023-04-16T18:08:18.372Z,7.80
2023-04-16T18:10:50.705Z,7.80
2023-04-16T18:13:25.524Z,7.90
2023-04-16T18:15:57.331Z,7.90
2023-04-16T18:18:29.008Z,7.90
2023-04-16T18:21:00.818Z,7.80
2023-04-16T18:23:32.564Z,7.90
2023-04-16T18:26:04.371Z,7.90
2023-04-16T18:28:36.125Z,7.80
2023-04-16T18:31:08.047Z,7.90
2023-04-16T18:33:55.466Z,7.90
2023-04-16T18:36:28.901Z,7.90
2023-04-16T18:39:15.761Z,7.90
2023-04-16T18:41:48.041Z,7.90
2023-04-16T18:44:19.963Z,7.90
2023-04-16T18:46:51.745Z,7.90
2023-04-16T18:49:23.637Z,7.90
2023-04-16T18:51:55.889Z,7.90
2023-04-16T18:54:27.981Z,7.90
2023-04-16T18:57:00.797Z,7.90
2023-04-16T18:59:33.024Z,7.90
2023-04-16T19:02:04.825Z,7.90
2023-04-16T19:04:38.090Z,7.90
2023-04-16T19:07:10.090Z,7.80
2023-04-16T19:09:41.801Z,7.90
2023-04-16T19:12:13.534Z,7.90
2023-04-16T19:14:45.305Z,7.90
2023-04-16T19:17:16.987Z,7.90
2023-04-16T19:19:48.983Z,7.90
2023-04-16T19:22:20.883Z,7.90
2023-04-16T19:24:54.592Z,7.90
2023-04-16T19:27:29.096Z,7.90
2023-04-16T19:30:00.821Z,7.90
2023-04-16T19:32:32.562Z,7.90
2023-04-16T19:35:04.810Z,7.90
2023-04-16T19:37:36.495Z,7.90
2023-04-16T19:40:09.332Z,7.90
2023-04-16T19:42:41.318Z,7.90
2023-04-16T19:45:13.040Z,7.90
2023-04-16T19:47:44.900Z,7.90
2023-04-16T19:50:16.658Z,7.90
2023-04-16T19:52:48.332Z,7.90
2023-04-16T19:55:20.108Z,7.80
2023-04-16T19:57:51.787Z,7.80
2023-04-16T20:00:23.535Z,7.80
2023-04-16T20:02:55.736Z,7.80
2023-04-16T20:05:28.014Z,7.80
2023-04-16T20:07:59.713Z,7.80
2023-04-16T20:10:31.798Z,7.80
2023-04-16T20:13:03.851Z,7.80
2023-04-16T20:15:35.641Z,7.80
2023-04-16T20:18:08.728Z,7.80
2023-04-16T20:20:46.946Z,7.80
2023-04-16T20:23:18.714Z,7.80
2023-04-16T20:25:50.735Z,7.80
2023-04-16T20:28:22.531Z,7.80
2023-04-16T20:30:54.351Z,7.80
2023-04-16T20:33:26.129Z,7.80
2023-04-16T20:35:57.877Z,7.70
2023-04-16T20:38:32.385Z,7.70
2023-04-16T20:41:10.339Z,7.70
2023-04-16T20:43:42.963Z,7.70
2023-04-16T20:46:14.719Z,7.70
2023-04-16T20:48:46.550Z,7.70
2023-04-16T20:51:18.276Z,7.70
2023-04-16T20:53:52.138Z,7.70
2023-04-16T20:56:23.922Z,7.70
2023-04-16T20:58:55.889Z,7.70
2023-04-16T21:01:27.733Z,7.70
2023-04-16T21:03:59.720Z,7.70
2023-04-16T21:06:32.994Z,7.70
2023-04-16T21:09:06.016Z,7.70
2023-04-16T21:11:38.206Z,7.60
2023-04-16T21:14:09.885Z,7.60
2023-04-16T21:16:41.600Z,7.60
2023-04-16T21:19:13.511Z,7.70
2023-04-16T21:21:45.475Z,7.60
2023-04-16T21:24:17.186Z,7.70
2023-04-16T21:26:48.940Z,7.70
2023-04-16T21:29:20.678Z,7.70
2023-04-16T21:31:52.479Z,7.60
2023-04-16T21:34:24.524Z,7.60
2023-04-16T21:36:56.219Z,7.70
2023-04-16T21:39:30.812Z,7.70
2023-04-16T21:42:02.606Z,7.70
2023-04-16T21:44:34.285Z,7.70
2023-04-16T21:47:06.200Z,7.60
2023-04-16T21:49:37.927Z,7.60
2023-04-16T21:52:18.337Z,7.60
2023-04-16T21:54:50.904Z,7.60
2023-04-16T21:57:22.674Z,7.60
2023-04-16T21:59:54.422Z,7.60
2023-04-16T22:02:26.337Z,7.70
2023-04-16T22:04:58.125Z,7.60
2023-04-16T22:07:30.506Z,7.70
2023-04-16T22:10:03.022Z,7.60
2023-04-16T22:12:37.826Z,7.70
2023-04-16T22:15:10.458Z,7.60
2023-04-16T22:17:42.308Z,7.70
2023-04-16T22:20:14.736Z,7.70
2023-04-16T22:22:46.533Z,7.70
2023-04-16T22:25:18.306Z,7.60
2023-04-16T22:27:50.215Z,7.70
2023-04-16T22:30:23.200Z,7.70
2023-04-16T22:32:57.355Z,7.70
2023-04-16T22:35:34.328Z,7.70
2023-04-16T22:38:06.440Z,7.70
2023-04-16T22:40:40.825Z,7.70
2023-04-16T22:43:12.630Z,7.60
2023-04-16T22:45:46.629Z,7.60
2023-04-16T22:48:20.390Z,7.60
2023-04-16T22:50:52.284Z,7.60
2023-04-16T22:53:30.941Z,7.60
2023-04-16T22:56:02.927Z,7.60
2023-04-16T22:58:34.769Z,7.70
2023-04-16T23:01:14.738Z,7.60
2023-04-16T23:03:54.565Z,7.60
2023-04-16T23:06:27.338Z,7.70
2023-04-16T23:08:59.089Z,7.60
2023-04-16T23:11:30.854Z,7.60
2023-04-16T23:14:04.076Z,7.60
2023-04-16T23:16:39.477Z,7.60
2023-04-16T23:19:14.834Z,7.60
2023-04-16T23:21:46.544Z,7.60
2023-04-16T23:24:19.242Z,7.60
2023-04-16T23:26:52.446Z,7.60
2023-04-16T23:29:27.898Z,7.60
2023-04-16T23:31:59.636Z,7.60
2023-04-16T23:34:31.415Z,7.60
2023-04-16T23:37:03.125Z,7.60
2023-04-16T23:39:34.834Z,7.60
2023-04-16T23:42:06.675Z,7.60
2023-04-16T23:44:38.545Z,7.60
2023-04-16T23:47:10.409Z,7.60
2023-04-16T23:49:42.159Z,7.60
2023-04-16T23:52:13.848Z,7.60
2023-04-16T23:54:45.635Z,7.60
2023-04-16T23:57:17.408Z,7.60
2023-04-16T23:59:49.137Z,7.60
